Marib Spirit — V7CY2 — position and weather

sailwx.info

Track history (hours):
 
Tides and Currents Weather Stations Pressure Air Temp Water Temp Dewpoint Dewpoint Depression Visibility Wind Speed Wind Dir Waves Ship Positions

Marib Spirit

Last reported at 2018-May-22 05:11 UTC. Time now 2018-May-24 23:19 UTC.
Position N 01°09' E 103°46'.

Length 285 m; draft 9 m.

Type: Ship (hazmat cat A). MMSI: 538001576.

Date/timePositionNaut miles runAvg speedWind from/ knotsBaromVisibWave heightAir tempDewpointWater temp
2018-May-22 05:11N 01°09' E 103°46'2 9.4
2018-May-22 05:01N 01°10' E 103°47'4 8.4
2018-May-22 04:30N 01°12' E 103°51'5 9.8
2018-May-22 04:00N 01°14' E 103°56'5 9.8
2018-May-22 03:31N 01°15' E 104°00'13 0.6
2018-May-21 03:54N 01°26' E 103°53'4 1.2
2018-May-21 01:02N 01°28' E 103°50'0 0.0
2018-May-21 01:00N 01°28' E 103°50'0 0.0
2018-May-21 00:30N 01°28' E 103°50'0 0.0
2018-May-21 00:00N 01°28' E 103°50'0 0.0
2018-May-20 23:30N 01°28' E 103°50'0 0.0
2018-May-20 23:00N 01°28' E 103°50'0 0.0
2018-May-20 22:30N 01°28' E 103°50'0 0.0
2018-May-20 22:00N 01°28' E 103°50'0 0.0
2018-May-20 21:30N 01°28' E 103°50'0 0.0
2018-May-20 21:00N 01°28' E 103°50'0 0.0
2018-May-20 20:31N 01°28' E 103°50'0 0.0
2018-May-20 19:59N 01°28' E 103°50'0 0.0
2018-May-20 19:30N 01°28' E 103°50'0 0.0
2018-May-20 19:00N 01°28' E 103°50'0 0.0
2018-May-20 18:30N 01°28' E 103°50'0 0.0
2018-May-20 18:00N 01°28' E 103°50'0 0.0
2018-May-20 17:30N 01°28' E 103°50'0 0.0
2018-May-20 16:59N 01°28' E 103°50'0 0.0
2018-May-20 16:30N 01°28' E 103°50'0 0.0
2018-May-20 16:00N 01°28' E 103°50'0 0.0
2018-May-20 15:29N 01°28' E 103°50'0 0.0
2018-May-20 15:00N 01°28' E 103°50'0 0.0
2018-May-20 14:30N 01°28' E 103°50'0 0.0
2018-May-20 14:01N 01°28' E 103°50'0 0.0
2018-May-20 13:30N 01°28' E 103°50'0 0.0
2018-May-20 13:00N 01°28' E 103°50'0 0.0
2018-May-20 12:28N 01°28' E 103°50'0 0.0
2018-May-20 12:00N 01°28' E 103°50'0 0.0
2018-May-20 11:30N 01°28' E 103°50'0 0.0
2018-May-20 10:59N 01°28' E 103°50'0 0.0
2018-May-20 10:30N 01°28' E 103°50'0 0.0
2018-May-20 09:59N 01°28' E 103°50'0 0.0
2018-May-20 09:30N 01°28' E 103°50'0 0.0
2018-May-20 09:01N 01°28' E 103°50'0 0.0
2018-May-20 08:30N 01°28' E 103°50'0 0.0
2018-May-20 08:00N 01°28' E 103°50'0 0.0
2018-May-20 07:30N 01°28' E 103°50'0 0.0
2018-May-20 07:00N 01°28' E 103°50'0 0.0
2018-May-20 06:30N 01°28' E 103°50'0 0.0
2018-May-20 06:00N 01°28' E 103°50'0 0.0
2018-May-20 05:30N 01°28' E 103°50'0 0.0
2018-May-20 05:00N 01°28' E 103°50'0 0.0
2018-May-20 04:30N 01°28' E 103°50'0 0.0
2018-May-20 04:00N 01°28' E 103°50'0 0.0
2018-May-20 03:30N 01°28' E 103°50'0 0.0
2018-May-20 03:00N 01°28' E 103°50'0 0.0
2018-May-20 02:30N 01°28' E 103°50'0 0.0
2018-May-20 02:00N 01°28' E 103°50'0 0.0
2018-May-20 01:30N 01°28' E 103°50'0 0.0
2018-May-20 01:00N 01°28' E 103°50'0 0.0
2018-May-20 00:30N 01°28' E 103°50'0 0.0
2018-May-20 00:00N 01°28' E 103°50'0 0.0
2018-May-19 23:30N 01°28' E 103°50'0 0.0
2018-May-19 23:00N 01°28' E 103°50'0 0.0
2018-May-19 22:29N 01°28' E 103°50'0 0.0
2018-May-19 22:00N 01°28' E 103°50'0 0.0
2018-May-19 21:30N 01°28' E 103°50'0 0.0
2018-May-19 21:00N 01°28' E 103°50'0 0.0
2018-May-19 20:30N 01°28' E 103°50'0 0.0
2018-May-19 20:00N 01°28' E 103°50'0 0.0
2018-May-19 19:31N 01°28' E 103°50'0 0.0
2018-May-19 19:00N 01°28' E 103°50'0 0.0
2018-May-19 18:30N 01°28' E 103°50'0 0.0
2018-May-19 18:01N 01°28' E 103°50'0 0.0
2018-May-19 17:30N 01°28' E 103°50'0 0.0
2018-May-19 16:57N 01°28' E 103°50'0 0.0
2018-May-19 16:30N 01°28' E 103°50'0 0.0
2018-May-19 16:00N 01°28' E 103°50'0 0.0
2018-May-19 15:30N 01°28' E 103°50'0 0.0
2018-May-19 15:00N 01°28' E 103°50'0 0.0
2018-May-19 14:30N 01°28' E 103°50'0 0.0
2018-May-19 14:00N 01°28' E 103°50'0 0.0
2018-May-19 13:30N 01°28' E 103°50'0 0.0
2018-May-19 13:00N 01°28' E 103°50'0 0.0
2018-May-19 12:30N 01°28' E 103°50'0 0.0
2018-May-19 12:00N 01°28' E 103°50'0 0.0
2018-May-19 11:30N 01°28' E 103°50'0 0.0
2018-May-19 11:00N 01°28' E 103°50'0 0.0
2018-May-19 10:31N 01°28' E 103°50'0 0.0
2018-May-19 10:00N 01°28' E 103°50'0 0.0
2018-May-19 09:29N 01°28' E 103°50'0 0.0
2018-May-19 09:00N 01°28' E 103°50'0 0.0
2018-May-19 08:30N 01°28' E 103°50'0 0.0
2018-May-19 08:00N 01°28' E 103°50'0 0.0
2018-May-19 07:30N 01°28' E 103°50'0 0.0
2018-May-19 07:00N 01°28' E 103°50'0 0.0
2018-May-19 06:29N 01°28' E 103°50'0 0.0
2018-May-19 06:00N 01°28' E 103°50'0 0.0
2018-May-19 05:30N 01°28' E 103°50'0 0.0
2018-May-19 05:00N 01°28' E 103°50'0 0.0
2018-May-19 04:30N 01°28' E 103°50'0 0.0
2018-May-19 04:00N 01°28' E 103°50'0 0.0
2018-May-19 03:31N 01°28' E 103°50'0 0.0
2018-May-19 03:00N 01°28' E 103°50'0 0.0
2018-May-19 02:30N 01°28' E 103°50'0 0.0
2018-May-19 02:00N 01°28' E 103°50'0 0.0
2018-May-19 01:30N 01°28' E 103°50'0 0.0
2018-May-19 00:59N 01°28' E 103°50'0 0.0
2018-May-19 00:30N 01°28' E 103°50'0 0.0
2018-May-19 00:00N 01°28' E 103°50'0 0.0
2018-May-18 23:31N 01°28' E 103°50'0 0.0
2018-May-18 22:59N 01°28' E 103°50'0 0.0
2018-May-18 22:30N 01°28' E 103°50'0 0.0
2018-May-18 22:01N 01°28' E 103°50'0 0.0
2018-May-18 21:30N 01°28' E 103°50'0 0.0
2018-May-18 21:01N 01°28' E 103°50'0 0.0
2018-May-18 20:30N 01°28' E 103°50'0 0.0
2018-May-18 20:01N 01°28' E 103°50'0 0.0
2018-May-18 19:31N 01°28' E 103°50'0 0.0
2018-May-18 19:00N 01°28' E 103°50'0 0.0
2018-May-18 18:30N 01°28' E 103°50'0 0.0
2018-May-18 18:00N 01°28' E 103°50'0 0.0
2018-May-18 17:30N 01°28' E 103°50'0 0.0
2018-May-18 17:00N 01°28' E 103°50'0 0.0
2018-May-18 16:26N 01°28' E 103°50'0 0.0
2018-May-18 16:00N 01°28' E 103°50'0 0.0
2018-May-18 15:30N 01°28' E 103°50'0 0.0
2018-May-18 15:01N 01°28' E 103°50'0 0.0
2018-May-18 14:30N 01°28' E 103°50'0 0.0
2018-May-18 14:00N 01°28' E 103°50'0 0.0
2018-May-18 13:30N 01°28' E 103°50'0 0.0
2018-May-18 13:01N 01°28' E 103°50'0 0.0
2018-May-18 12:30N 01°28' E 103°50'0 0.0
2018-May-18 12:01N 01°28' E 103°50'0 0.0
2018-May-18 11:30N 01°28' E 103°50'0 0.0
2018-May-18 11:00N 01°28' E 103°50'0 0.0
2018-May-18 10:31N 01°28' E 103°50'0 0.0
2018-May-18 10:00N 01°28' E 103°50'0 0.0
2018-May-18 09:30N 01°28' E 103°50'0 0.0
2018-May-18 08:56N 01°28' E 103°50'0 0.0
2018-May-18 08:29N 01°28' E 103°50'0 0.0
2018-May-18 08:00N 01°28' E 103°50'0 0.0
2018-May-18 07:30N 01°28' E 103°50'0 0.0
2018-May-18 06:59N 01°28' E 103°50'0 0.0
2018-May-18 06:30N 01°28' E 103°50'0 0.0
2018-May-18 06:01N 01°28' E 103°50'0 0.0
2018-May-18 05:30N 01°28' E 103°50'0 0.0
2018-May-18 05:00N 01°28' E 103°50'0 0.0
2018-May-18 04:30N 01°28' E 103°50'0 0.0
2018-May-18 04:00N 01°28' E 103°50'0 0.0
2018-May-18 03:31N 01°28' E 103°50'0 0.0
2018-May-18 02:59N 01°28' E 103°50'0 0.0
2018-May-18 02:28N 01°28' E 103°50'0 0.0
2018-May-18 02:00N 01°28' E 103°50'0 0.0
2018-May-18 01:30N 01°28' E 103°50'0 0.0
2018-May-18 00:51N 01°28' E 103°50'0 0.0
2018-May-18 00:30N 01°28' E 103°50'0 0.0
2018-May-18 00:00N 01°28' E 103°50'0 0.0
2018-May-17 23:30N 01°28' E 103°50'0 0.0
2018-May-17 22:59N 01°28' E 103°50'0 0.0
2018-May-17 22:30N 01°28' E 103°50'0 0.0
2018-May-17 21:58N 01°28' E 103°50'0 0.0
2018-May-17 21:31N 01°28' E 103°50'0 0.0
2018-May-17 20:59N 01°28' E 103°50'0 0.0
2018-May-17 20:30N 01°28' E 103°50'0 0.0
2018-May-17 20:00N 01°28' E 103°50'0 0.0
2018-May-17 19:29N 01°28' E 103°50'0 0.0
2018-May-17 19:00N 01°28' E 103°50'0 0.0
2018-May-17 18:31N 01°28' E 103°50'0 0.0
2018-May-17 17:58N 01°28' E 103°50'0 0.0
2018-May-17 17:30N 01°28' E 103°50'0 0.0
2018-May-17 17:00N 01°28' E 103°50'0 0.0
2018-May-17 16:30N 01°28' E 103°50'0 0.0
2018-May-17 15:59N 01°28' E 103°50'0 0.0
2018-May-17 15:30N 01°28' E 103°50'0 0.0
2018-May-17 14:59N 01°28' E 103°50'0 0.0
2018-May-17 14:30N 01°28' E 103°50'0 0.0
2018-May-17 14:00N 01°28' E 103°50'0 0.0
2018-May-17 13:30N 01°28' E 103°50'0 0.0
2018-May-17 13:00N 01°28' E 103°50'0 0.0
2018-May-17 12:31N 01°28' E 103°50'0 0.0
2018-May-17 12:00N 01°28' E 103°50'0 0.0
2018-May-17 11:30N 01°28' E 103°50'0 0.0
2018-May-17 11:00N 01°28' E 103°50'0 0.0
2018-May-17 10:31N 01°28' E 103°50'0 0.0
2018-May-17 09:59N 01°28' E 103°50'0 0.0
2018-May-17 09:31N 01°28' E 103°50'0 0.0
2018-May-17 08:58N 01°28' E 103°50'0 0.0
2018-May-17 08:30N 01°28' E 103°50'0 0.0
2018-May-17 07:59N 01°28' E 103°50'0 0.0
2018-May-17 07:30N 01°28' E 103°50'0 0.1
2018-May-17 06:59N 01°28' E 103°50'0 0.4
2018-May-17 06:29N 01°28' E 103°50'0 0.3
2018-May-17 05:46N 01°28' E 103°49'0 0.0
2018-May-17 05:30N 01°28' E 103°49'0 0.0
2018-May-17 05:00N 01°28' E 103°49'0 0.0
2018-May-17 04:26N 01°28' E 103°49'0 0.0
2018-May-17 04:00N 01°28' E 103°49'0 0.0
2018-May-17 03:30N 01°28' E 103°49'0 0.0
2018-May-17 02:57N 01°28' E 103°49'0 0.0
2018-May-17 02:30N 01°28' E 103°49'0 0.0
2018-May-17 01:59N 01°28' E 103°49'0 0.0
2018-May-17 01:24N 01°28' E 103°49'0 0.0
2018-May-17 00:58N 01°28' E 103°49'0 0.0
2018-May-17 00:30N 01°28' E 103°49'0 0.0
2018-May-16 23:59N 01°28' E 103°49'0 0.0
2018-May-16 23:30N 01°28' E 103°49'0 0.0
2018-May-16 23:00N 01°28' E 103°49'0 0.0
2018-May-16 22:30N 01°28' E 103°49'0 0.0
2018-May-16 22:00N 01°28' E 103°49'0 0.0
2018-May-16 21:31N 01°28' E 103°49'0 0.0
2018-May-16 21:00N 01°28' E 103°49'0 0.0
2018-May-16 20:30N 01°28' E 103°49'0 0.0
2018-May-16 19:59N 01°28' E 103°49'0 0.0
2018-May-16 19:30N 01°28' E 103°49'0 0.0
2018-May-16 18:59N 01°28' E 103°49'0 0.0
2018-May-16 18:30N 01°28' E 103°49'0 0.0
2018-May-16 18:00N 01°28' E 103°49'0 0.0
2018-May-16 17:27N 01°28' E 103°49'0 0.0
2018-May-16 17:00N 01°28' E 103°49'0 0.0
2018-May-16 16:31N 01°28' E 103°49'0 0.0
2018-May-16 16:00N 01°28' E 103°49'0 0.0
2018-May-16 15:31N 01°28' E 103°49'0 0.0
2018-May-16 14:59N 01°28' E 103°49'0 0.0
2018-May-16 14:30N 01°28' E 103°49'0 0.0
2018-May-16 14:00N 01°28' E 103°49'0 0.0
2018-May-16 13:30N 01°28' E 103°49'0 0.0
2018-May-16 13:00N 01°28' E 103°49'0 0.0
2018-May-16 12:30N 01°28' E 103°49'0 0.0
2018-May-16 11:59N 01°28' E 103°49'0 0.0
2018-May-16 11:31N 01°28' E 103°49'0 0.0
2018-May-16 10:59N 01°28' E 103°49'0 0.0
2018-May-16 10:29N 01°28' E 103°49'0 0.0
2018-May-16 09:59N 01°28' E 103°49'0 0.0
2018-May-16 09:30N 01°28' E 103°49'0 0.0
2018-May-16 09:00N 01°28' E 103°49'0 0.0
2018-May-16 08:30N 01°28' E 103°49'0 0.0
2018-May-16 07:59N 01°28' E 103°49'0 0.0
2018-May-16 07:30N 01°28' E 103°49'0 0.0
2018-May-16 07:00N 01°28' E 103°49'0 0.0
2018-May-16 06:29N 01°28' E 103°49'0 0.0
2018-May-16 05:59N 01°28' E 103°49'0 0.0
2018-May-16 05:30N 01°28' E 103°49'0 0.0
2018-May-16 04:59N 01°28' E 103°49'0 0.0
2018-May-16 04:30N 01°28' E 103°49'0 0.0
2018-May-16 03:59N 01°28' E 103°49'0 0.0
2018-May-16 03:30N 01°28' E 103°49'0 0.0
2018-May-16 02:59N 01°28' E 103°49'0 0.0
2018-May-16 02:30N 01°28' E 103°49'0 0.0
2018-May-16 01:59N 01°28' E 103°49'0 0.0
2018-May-16 01:31N 01°28' E 103°49'0 0.0
2018-May-16 00:53N 01°28' E 103°49'0 0.0
2018-May-16 00:30N 01°28' E 103°49'0 0.0
2018-May-15 23:59N 01°28' E 103°49'0 0.0
2018-May-15 23:30N 01°28' E 103°49'0 0.0
2018-May-15 23:00N 01°28' E 103°49'0 0.0
2018-May-15 22:29N 01°28' E 103°49'0 0.0
2018-May-15 21:59N 01°28' E 103°49'0 0.0
2018-May-15 21:30N 01°28' E 103°49'0 0.0
2018-May-15 21:00N 01°28' E 103°49'0 0.0
2018-May-15 20:30N 01°28' E 103°49'0 0.0
2018-May-15 19:59N 01°28' E 103°49'0 0.0
2018-May-15 19:30N 01°28' E 103°49'0 0.0
2018-May-15 18:59N 01°28' E 103°49'0 0.0
2018-May-15 18:31N 01°28' E 103°49'0 0.0
2018-May-15 18:00N 01°28' E 103°49'0 0.0
2018-May-15 17:31N 01°28' E 103°49'0 0.0
2018-May-15 16:57N 01°28' E 103°49'0 0.0
2018-May-15 16:30N 01°28' E 103°49'0 0.0
2018-May-15 16:00N 01°28' E 103°49'0 0.0
2018-May-15 15:30N 01°28' E 103°49'0 0.0
2018-May-15 14:57N 01°28' E 103°49'0 0.0
2018-May-15 14:30N 01°28' E 103°49'0 0.0
2018-May-15 13:59N 01°28' E 103°49'0 0.0
2018-May-15 13:30N 01°28' E 103°49'0 0.0
2018-May-15 13:00N 01°28' E 103°49'0 0.0
2018-May-15 12:30N 01°28' E 103°49'0 0.0
2018-May-15 10:30N 01°28' E 103°49'0 0.0
2018-May-15 09:59N 01°28' E 103°49'0 0.0
2018-May-15 09:30N 01°28' E 103°49'0 0.0
2018-May-15 08:59N 01°28' E 103°49'0 0.0
2018-May-15 08:30N 01°28' E 103°49'0 0.0
2018-May-15 08:00N 01°28' E 103°49'0 0.0
2018-May-15 07:30N 01°28' E 103°49'0 0.0
2018-May-15 06:59N 01°28' E 103°49'0 0.0
2018-May-15 06:30N 01°28' E 103°49'0 0.0
2018-May-15 05:59N 01°28' E 103°49'0 0.0
2018-May-15 05:30N 01°28' E 103°49'0 0.0
2018-May-15 04:57N 01°28' E 103°49'0 0.0
2018-May-15 04:31N 01°28' E 103°49'0 0.0
2018-May-15 03:58N 01°28' E 103°49'0 0.0
2018-May-15 03:30N 01°28' E 103°49'0 0.0
2018-May-15 02:59N 01°28' E 103°49'0 0.0
2018-May-15 02:30N 01°28' E 103°49'0 0.0
2018-May-15 02:00N 01°28' E 103°49'0 0.0
2018-May-15 01:30N 01°28' E 103°49'0 0.0
2018-May-15 01:00N 01°28' E 103°49'0 0.0
2018-May-15 00:30N 01°28' E 103°49'0 0.0
2018-May-14 23:58N 01°28' E 103°49'0 0.0
2018-May-14 23:30N 01°28' E 103°49'0 0.0
2018-May-14 23:00N 01°28' E 103°49'0 0.0
2018-May-14 22:30N 01°28' E 103°49'0 0.0
2018-May-14 21:59N 01°28' E 103°49'0 0.0
2018-May-14 21:31N 01°28' E 103°49'0 0.0
2018-May-14 20:58N 01°28' E 103°49'0 0.0
2018-May-14 20:30N 01°28' E 103°49'0 0.0
2018-May-14 19:59N 01°28' E 103°49'0 0.0
2018-May-14 19:30N 01°28' E 103°49'0 0.0
2018-May-14 19:00N 01°28' E 103°49'0 0.0
2018-May-14 18:29N 01°28' E 103°49'0 0.0
2018-May-14 17:59N 01°28' E 103°49'0 0.0
2018-May-14 17:30N 01°28' E 103°49'0 0.0
2018-May-14 16:59N 01°28' E 103°49'0 0.0
2018-May-14 16:30N 01°28' E 103°49'0 0.0
2018-May-14 15:59N 01°28' E 103°49'0 0.0
2018-May-14 15:31N 01°28' E 103°49'0 0.0
2018-May-14 14:59N 01°28' E 103°49'0 0.0
2018-May-14 14:30N 01°28' E 103°49'0 0.0
2018-May-14 13:59N 01°28' E 103°49'0 0.0
2018-May-14 13:30N 01°28' E 103°49'0 0.0
2018-May-14 12:59N 01°28' E 103°49'0 0.0
2018-May-14 12:31N 01°28' E 103°49'0 0.0
2018-May-14 11:59N 01°28' E 103°49'0 0.0
2018-May-14 11:30N 01°28' E 103°49'0 0.0
2018-May-14 10:56N 01°28' E 103°49'0 0.0
2018-May-14 10:30N 01°28' E 103°49'0 0.0
2018-May-14 09:59N 01°28' E 103°49'0 0.0
2018-May-14 09:28N 01°28' E 103°49'0 0.0
2018-May-14 08:59N 01°28' E 103°49'0 0.0
2018-May-14 08:30N 01°28' E 103°49'0 0.0
2018-May-14 08:00N 01°28' E 103°49'0 0.0
2018-May-14 07:30N 01°28' E 103°49'0 0.0
2018-May-14 07:00N 01°28' E 103°49'0 0.0
2018-May-14 06:30N 01°28' E 103°49'0 0.0
2018-May-14 05:58N 01°28' E 103°49'0 0.0
2018-May-14 05:31N 01°28' E 103°49'0 0.0
2018-May-14 05:00N 01°28' E 103°49'0 0.0
2018-May-14 04:31N 01°28' E 103°49'0 0.0
2018-May-14 03:59N 01°28' E 103°49'0 0.0
2018-May-14 03:31N 01°28' E 103°49'0 0.0
2018-May-14 02:59N 01°28' E 103°49'0 0.0
2018-May-14 02:30N 01°28' E 103°49'0 0.0
2018-May-14 02:00N 01°28' E 103°49'0 0.0
2018-May-14 01:30N 01°28' E 103°49'0 0.0
2018-May-14 01:00N 01°28' E 103°49'0 0.0
2018-May-14 00:30N 01°28' E 103°49'0 0.0
2018-May-13 23:59N 01°28' E 103°49'0 0.0
2018-May-13 23:30N 01°28' E 103°49'0 0.0
2018-May-13 23:00N 01°28' E 103°49'0 0.0
2018-May-13 22:30N 01°28' E 103°49'0 0.0
2018-May-13 21:59N 01°28' E 103°49'0 0.0
2018-May-13 21:30N 01°28' E 103°49'0 0.0
2018-May-13 21:00N 01°28' E 103°49'0 0.0
2018-May-13 20:29N 01°28' E 103°49'0 0.0
2018-May-13 20:00N 01°28' E 103°49'0 0.0
2018-May-13 19:30N 01°28' E 103°49'0 0.0
2018-May-13 19:00N 01°28' E 103°49'0 0.0
2018-May-13 18:30N 01°28' E 103°49'0 0.0
2018-May-13 17:59N 01°28' E 103°49'0 0.0
2018-May-13 17:30N 01°28' E 103°49'0 0.0
2018-May-13 17:00N 01°28' E 103°49'0 0.0
2018-May-13 16:30N 01°28' E 103°49'0 0.0
2018-May-13 16:00N 01°28' E 103°49'0 0.0
2018-May-13 15:31N 01°28' E 103°49'0 0.0
2018-May-13 14:55N 01°28' E 103°49'0 0.0
2018-May-13 14:30N 01°28' E 103°49'0 0.0
2018-May-13 14:00N 01°28' E 103°49'0 0.0
2018-May-13 13:30N 01°28' E 103°49'0 0.0
2018-May-13 12:59N 01°28' E 103°49'0 0.0
2018-May-13 12:30N 01°28' E 103°49'0 0.0
2018-May-13 11:59N 01°28' E 103°49'0 0.0
2018-May-13 11:30N 01°28' E 103°49'0 0.0
2018-May-13 10:58N 01°28' E 103°49'0 0.0
2018-May-13 10:31N 01°28' E 103°49'0 0.0
2018-May-13 09:59N 01°28' E 103°49'0 0.0
2018-May-13 09:30N 01°28' E 103°49'0 0.0
2018-May-13 08:59N 01°28' E 103°49'0 0.0
2018-May-13 08:30N 01°28' E 103°49'0 0.0
2018-May-13 07:59N 01°28' E 103°49'0 0.0
2018-May-13 07:31N 01°28' E 103°49'0 0.0
2018-May-13 07:00N 01°28' E 103°49'0 0.0
2018-May-13 06:30N 01°28' E 103°49'0 0.0
2018-May-13 05:59N 01°28' E 103°49'0 0.0
2018-May-13 05:31N 01°28' E 103°49'0 0.0
2018-May-13 04:58N 01°28' E 103°49'0 0.0
2018-May-13 04:30N 01°28' E 103°49'0 0.0
2018-May-13 03:59N 01°28' E 103°49'0 0.0
2018-May-13 03:30N 01°28' E 103°49'0 0.0
2018-May-13 03:00N 01°28' E 103°49'0 0.0
2018-May-13 02:30N 01°28' E 103°49'0 0.0
2018-May-13 02:00N 01°28' E 103°49'0 0.0
2018-May-13 01:30N 01°28' E 103°49'0 0.0
2018-May-13 00:59N 01°28' E 103°49'0 0.0
2018-May-13 00:28N 01°28' E 103°49'0 0.0
2018-May-12 23:59N 01°28' E 103°49'0 0.0
2018-May-12 23:30N 01°28' E 103°49'0 0.0
2018-May-12 22:59N 01°28' E 103°49'0 0.0
2018-May-12 22:30N 01°28' E 103°49'0 0.0
2018-May-12 21:59N 01°28' E 103°49'0 0.0
2018-May-12 21:30N 01°28' E 103°49'0 0.0
2018-May-12 20:59N 01°28' E 103°49'0 0.0
2018-May-12 20:30N 01°28' E 103°49'0 0.0
2018-May-12 19:59N 01°28' E 103°49'0 0.0
2018-May-12 19:31N 01°28' E 103°49'0 0.0
2018-May-12 18:59N 01°28' E 103°49'0 0.0
2018-May-12 18:30N 01°28' E 103°49'0 0.0
2018-May-12 17:59N 01°28' E 103°49'0 0.0
2018-May-12 17:30N 01°28' E 103°49'0 0.0
2018-May-12 16:57N 01°28' E 103°49'0 0.0
2018-May-12 16:30N 01°28' E 103°49'0 0.0
2018-May-12 15:59N 01°28' E 103°49'0 0.0
2018-May-12 15:30N 01°28' E 103°49'0 0.0
2018-May-12 14:59N 01°28' E 103°49'0 0.0
2018-May-12 14:30N 01°28' E 103°49'0 0.0
2018-May-12 14:00N 01°28' E 103°49'0 0.0
2018-May-12 13:30N 01°28' E 103°49'0 0.0
2018-May-12 12:59N 01°28' E 103°49'0 0.0
2018-May-12 12:30N 01°28' E 103°49'0 0.0
2018-May-12 11:58N 01°28' E 103°49'0 0.0
2018-May-12 11:30N 01°28' E 103°49'0 0.0
2018-May-12 10:59N 01°28' E 103°49'0 0.0
2018-May-12 10:30N 01°28' E 103°49'0 0.0
2018-May-12 10:00N 01°28' E 103°49'0 0.0
2018-May-12 09:30N 01°28' E 103°49'0 0.0
2018-May-12 08:59N 01°28' E 103°49'0 0.0
2018-May-12 08:30N 01°28' E 103°49'0 0.0
2018-May-12 07:59N 01°28' E 103°49'0 0.0
2018-May-12 07:30N 01°28' E 103°49'0 0.0
2018-May-12 06:59N 01°28' E 103°49'0 0.0
2018-May-12 06:30N 01°28' E 103°49'0 0.0
2018-May-12 05:59N 01°28' E 103°49'0 0.0
2018-May-12 05:30N 01°28' E 103°49'  
Track history (hours):
 
Tides and Currents Weather Stations Pressure Air Temp Water Temp Dewpoint Dewpoint Depression Visibility Wind Speed Wind Dir Waves Ship Positions

Marib Spirit

Last reported at 2018-May-22 05:11 UTC. Time now 2018-May-24 23:19 UTC.
Position N 01°09' E 103°46'.

Length 285 m; draft 9 m.

Type: Ship (hazmat cat A). MMSI: 538001576.

Date/timePositionNaut miles runAvg speedWind from/ knotsBaromVisibWave heightAir tempDewpointWater temp
2018-May-22 05:11N 01°09' E 103°46'2 9.4
2018-May-22 05:01N 01°10' E 103°47'4 8.4
2018-May-22 04:30N 01°12' E 103°51'5 9.8
2018-May-22 04:00N 01°14' E 103°56'5 9.8
2018-May-22 03:31N 01°15' E 104°00'13 0.6
2018-May-21 03:54N 01°26' E 103°53'4 1.2
2018-May-21 01:02N 01°28' E 103°50'0 0.0
2018-May-21 01:00N 01°28' E 103°50'0 0.0
2018-May-21 00:30N 01°28' E 103°50'0 0.0
2018-May-21 00:00N 01°28' E 103°50'0 0.0
2018-May-20 23:30N 01°28' E 103°50'0 0.0
2018-May-20 23:00N 01°28' E 103°50'0 0.0
2018-May-20 22:30N 01°28' E 103°50'0 0.0
2018-May-20 22:00N 01°28' E 103°50'0 0.0
2018-May-20 21:30N 01°28' E 103°50'0 0.0
2018-May-20 21:00N 01°28' E 103°50'0 0.0
2018-May-20 20:31N 01°28' E 103°50'0 0.0
2018-May-20 19:59N 01°28' E 103°50'0 0.0
2018-May-20 19:30N 01°28' E 103°50'0 0.0
2018-May-20 19:00N 01°28' E 103°50'0 0.0
2018-May-20 18:30N 01°28' E 103°50'0 0.0
2018-May-20 18:00N 01°28' E 103°50'0 0.0
2018-May-20 17:30N 01°28' E 103°50'0 0.0
2018-May-20 16:59N 01°28' E 103°50'0 0.0
2018-May-20 16:30N 01°28' E 103°50'0 0.0
2018-May-20 16:00N 01°28' E 103°50'0 0.0
2018-May-20 15:29N 01°28' E 103°50'0 0.0
2018-May-20 15:00N 01°28' E 103°50'0 0.0
2018-May-20 14:30N 01°28' E 103°50'0 0.0
2018-May-20 14:01N 01°28' E 103°50'0 0.0
2018-May-20 13:30N 01°28' E 103°50'0 0.0
2018-May-20 13:00N 01°28' E 103°50'0 0.0
2018-May-20 12:28N 01°28' E 103°50'0 0.0
2018-May-20 12:00N 01°28' E 103°50'0 0.0
2018-May-20 11:30N 01°28' E 103°50'0 0.0
2018-May-20 10:59N 01°28' E 103°50'0 0.0
2018-May-20 10:30N 01°28' E 103°50'0 0.0
2018-May-20 09:59N 01°28' E 103°50'0 0.0
2018-May-20 09:30N 01°28' E 103°50'0 0.0
2018-May-20 09:01N 01°28' E 103°50'0 0.0
2018-May-20 08:30N 01°28' E 103°50'0 0.0
2018-May-20 08:00N 01°28' E 103°50'0 0.0
2018-May-20 07:30N 01°28' E 103°50'0 0.0
2018-May-20 07:00N 01°28' E 103°50'0 0.0
2018-May-20 06:30N 01°28' E 103°50'0 0.0
2018-May-20 06:00N 01°28' E 103°50'0 0.0
2018-May-20 05:30N 01°28' E 103°50'0 0.0
2018-May-20 05:00N 01°28' E 103°50'0 0.0
2018-May-20 04:30N 01°28' E 103°50'0 0.0
2018-May-20 04:00N 01°28' E 103°50'0 0.0
2018-May-20 03:30N 01°28' E 103°50'0 0.0
2018-May-20 03:00N 01°28' E 103°50'0 0.0
2018-May-20 02:30N 01°28' E 103°50'0 0.0
2018-May-20 02:00N 01°28' E 103°50'0 0.0
2018-May-20 01:30N 01°28' E 103°50'0 0.0
2018-May-20 01:00N 01°28' E 103°50'0 0.0
2018-May-20 00:30N 01°28' E 103°50'0 0.0
2018-May-20 00:00N 01°28' E 103°50'0 0.0
2018-May-19 23:30N 01°28' E 103°50'0 0.0
2018-May-19 23:00N 01°28' E 103°50'0 0.0
2018-May-19 22:29N 01°28' E 103°50'0 0.0
2018-May-19 22:00N 01°28' E 103°50'0 0.0
2018-May-19 21:30N 01°28' E 103°50'0 0.0
2018-May-19 21:00N 01°28' E 103°50'0 0.0
2018-May-19 20:30N 01°28' E 103°50'0 0.0
2018-May-19 20:00N 01°28' E 103°50'0 0.0
2018-May-19 19:31N 01°28' E 103°50'0 0.0
2018-May-19 19:00N 01°28' E 103°50'0 0.0
2018-May-19 18:30N 01°28' E 103°50'0 0.0
2018-May-19 18:01N 01°28' E 103°50'0 0.0
2018-May-19 17:30N 01°28' E 103°50'0 0.0
2018-May-19 16:57N 01°28' E 103°50'0 0.0
2018-May-19 16:30N 01°28' E 103°50'0 0.0
2018-May-19 16:00N 01°28' E 103°50'0 0.0
2018-May-19 15:30N 01°28' E 103°50'0 0.0
2018-May-19 15:00N 01°28' E 103°50'0 0.0
2018-May-19 14:30N 01°28' E 103°50'0 0.0
2018-May-19 14:00N 01°28' E 103°50'0 0.0
2018-May-19 13:30N 01°28' E 103°50'0 0.0
2018-May-19 13:00N 01°28' E 103°50'0 0.0
2018-May-19 12:30N 01°28' E 103°50'0 0.0
2018-May-19 12:00N 01°28' E 103°50'0 0.0
2018-May-19 11:30N 01°28' E 103°50'0 0.0
2018-May-19 11:00N 01°28' E 103°50'0 0.0
2018-May-19 10:31N 01°28' E 103°50'0 0.0
2018-May-19 10:00N 01°28' E 103°50'0 0.0
2018-May-19 09:29N 01°28' E 103°50'0 0.0
2018-May-19 09:00N 01°28' E 103°50'0 0.0
2018-May-19 08:30N 01°28' E 103°50'0 0.0
2018-May-19 08:00N 01°28' E 103°50'0 0.0
2018-May-19 07:30N 01°28' E 103°50'0 0.0
2018-May-19 07:00N 01°28' E 103°50'0 0.0
2018-May-19 06:29N 01°28' E 103°50'0 0.0
2018-May-19 06:00N 01°28' E 103°50'0 0.0
2018-May-19 05:30N 01°28' E 103°50'0 0.0
2018-May-19 05:00N 01°28' E 103°50'0 0.0
2018-May-19 04:30N 01°28' E 103°50'0 0.0
2018-May-19 04:00N 01°28' E 103°50'0 0.0
2018-May-19 03:31N 01°28' E 103°50'0 0.0
2018-May-19 03:00N 01°28' E 103°50'0 0.0
2018-May-19 02:30N 01°28' E 103°50'0 0.0
2018-May-19 02:00N 01°28' E 103°50'0 0.0
2018-May-19 01:30N 01°28' E 103°50'0 0.0
2018-May-19 00:59N 01°28' E 103°50'0 0.0
2018-May-19 00:30N 01°28' E 103°50'0 0.0
2018-May-19 00:00N 01°28' E 103°50'0 0.0
2018-May-18 23:31N 01°28' E 103°50'0 0.0
2018-May-18 22:59N 01°28' E 103°50'0 0.0
2018-May-18 22:30N 01°28' E 103°50'0 0.0
2018-May-18 22:01N 01°28' E 103°50'0 0.0
2018-May-18 21:30N 01°28' E 103°50'0 0.0
2018-May-18 21:01N 01°28' E 103°50'0 0.0
2018-May-18 20:30N 01°28' E 103°50'0 0.0
2018-May-18 20:01N 01°28' E 103°50'0 0.0
2018-May-18 19:31N 01°28' E 103°50'0 0.0
2018-May-18 19:00N 01°28' E 103°50'0 0.0
2018-May-18 18:30N 01°28' E 103°50'0 0.0
2018-May-18 18:00N 01°28' E 103°50'0 0.0
2018-May-18 17:30N 01°28' E 103°50'0 0.0
2018-May-18 17:00N 01°28' E 103°50'0 0.0
2018-May-18 16:26N 01°28' E 103°50'0 0.0
2018-May-18 16:00N 01°28' E 103°50'0 0.0
2018-May-18 15:30N 01°28' E 103°50'0 0.0
2018-May-18 15:01N 01°28' E 103°50'0 0.0
2018-May-18 14:30N 01°28' E 103°50'0 0.0
2018-May-18 14:00N 01°28' E 103°50'0 0.0
2018-May-18 13:30N 01°28' E 103°50'0 0.0
2018-May-18 13:01N 01°28' E 103°50'0 0.0
2018-May-18 12:30N 01°28' E 103°50'0 0.0
2018-May-18 12:01N 01°28' E 103°50'0 0.0
2018-May-18 11:30N 01°28' E 103°50'0 0.0
2018-May-18 11:00N 01°28' E 103°50'0 0.0
2018-May-18 10:31N 01°28' E 103°50'0 0.0
2018-May-18 10:00N 01°28' E 103°50'0 0.0
2018-May-18 09:30N 01°28' E 103°50'0 0.0
2018-May-18 08:56N 01°28' E 103°50'0 0.0
2018-May-18 08:29N 01°28' E 103°50'0 0.0
2018-May-18 08:00N 01°28' E 103°50'0 0.0
2018-May-18 07:30N 01°28' E 103°50'0 0.0
2018-May-18 06:59N 01°28' E 103°50'0 0.0
2018-May-18 06:30N 01°28' E 103°50'0 0.0
2018-May-18 06:01N 01°28' E 103°50'0 0.0
2018-May-18 05:30N 01°28' E 103°50'0 0.0
2018-May-18 05:00N 01°28' E 103°50'0 0.0
2018-May-18 04:30N 01°28' E 103°50'0 0.0
2018-May-18 04:00N 01°28' E 103°50'0 0.0
2018-May-18 03:31N 01°28' E 103°50'0 0.0
2018-May-18 02:59N 01°28' E 103°50'0 0.0
2018-May-18 02:28N 01°28' E 103°50'0 0.0
2018-May-18 02:00N 01°28' E 103°50'0 0.0
2018-May-18 01:30N 01°28' E 103°50'0 0.0
2018-May-18 00:51N 01°28' E 103°50'0 0.0
2018-May-18 00:30N 01°28' E 103°50'0 0.0
2018-May-18 00:00N 01°28' E 103°50'0 0.0
2018-May-17 23:30N 01°28' E 103°50'0 0.0
2018-May-17 22:59N 01°28' E 103°50'0 0.0
2018-May-17 22:30N 01°28' E 103°50'0 0.0
2018-May-17 21:58N 01°28' E 103°50'0 0.0
2018-May-17 21:31N 01°28' E 103°50'0 0.0
2018-May-17 20:59N 01°28' E 103°50'0 0.0
2018-May-17 20:30N 01°28' E 103°50'0 0.0
2018-May-17 20:00N 01°28' E 103°50'0 0.0
2018-May-17 19:29N 01°28' E 103°50'0 0.0
2018-May-17 19:00N 01°28' E 103°50'0 0.0
2018-May-17 18:31N 01°28' E 103°50'0 0.0
2018-May-17 17:58N 01°28' E 103°50'0 0.0
2018-May-17 17:30N 01°28' E 103°50'0 0.0
2018-May-17 17:00N 01°28' E 103°50'0 0.0
2018-May-17 16:30N 01°28' E 103°50'0 0.0
2018-May-17 15:59N 01°28' E 103°50'0 0.0
2018-May-17 15:30N 01°28' E 103°50'0 0.0
2018-May-17 14:59N 01°28' E 103°50'0 0.0
2018-May-17 14:30N 01°28' E 103°50'0 0.0
2018-May-17 14:00N 01°28' E 103°50'0 0.0
2018-May-17 13:30N 01°28' E 103°50'0 0.0
2018-May-17 13:00N 01°28' E 103°50'0 0.0
2018-May-17 12:31N 01°28' E 103°50'0 0.0
2018-May-17 12:00N 01°28' E 103°50'0 0.0
2018-May-17 11:30N 01°28' E 103°50'0 0.0
2018-May-17 11:00N 01°28' E 103°50'0 0.0
2018-May-17 10:31N 01°28' E 103°50'0 0.0
2018-May-17 09:59N 01°28' E 103°50'0 0.0
2018-May-17 09:31N 01°28' E 103°50'0 0.0
2018-May-17 08:58N 01°28' E 103°50'0 0.0
2018-May-17 08:30N 01°28' E 103°50'0 0.0
2018-May-17 07:59N 01°28' E 103°50'0 0.0
2018-May-17 07:30N 01°28' E 103°50'0 0.1
2018-May-17 06:59N 01°28' E 103°50'0 0.4
2018-May-17 06:29N 01°28' E 103°50'0 0.3
2018-May-17 05:46N 01°28' E 103°49'0 0.0
2018-May-17 05:30N 01°28' E 103°49'0 0.0
2018-May-17 05:00N 01°28' E 103°49'0 0.0
2018-May-17 04:26N 01°28' E 103°49'0 0.0
2018-May-17 04:00N 01°28' E 103°49'0 0.0
2018-May-17 03:30N 01°28' E 103°49'0 0.0
2018-May-17 02:57N 01°28' E 103°49'0 0.0
2018-May-17 02:30N 01°28' E 103°49'0 0.0
2018-May-17 01:59N 01°28' E 103°49'0 0.0
2018-May-17 01:24N 01°28' E 103°49'0 0.0
2018-May-17 00:58N 01°28' E 103°49'0 0.0
2018-May-17 00:30N 01°28' E 103°49'0 0.0
2018-May-16 23:59N 01°28' E 103°49'0 0.0
2018-May-16 23:30N 01°28' E 103°49'0 0.0
2018-May-16 23:00N 01°28' E 103°49'0 0.0
2018-May-16 22:30N 01°28' E 103°49'0 0.0
2018-May-16 22:00N 01°28' E 103°49'0 0.0
2018-May-16 21:31N 01°28' E 103°49'0 0.0
2018-May-16 21:00N 01°28' E 103°49'0 0.0
2018-May-16 20:30N 01°28' E 103°49'0 0.0
2018-May-16 19:59N 01°28' E 103°49'0 0.0
2018-May-16 19:30N 01°28' E 103°49'0 0.0
2018-May-16 18:59N 01°28' E 103°49'0 0.0
2018-May-16 18:30N 01°28' E 103°49'0 0.0
2018-May-16 18:00N 01°28' E 103°49'0 0.0
2018-May-16 17:27N 01°28' E 103°49'0 0.0
2018-May-16 17:00N 01°28' E 103°49'0 0.0
2018-May-16 16:31N 01°28' E 103°49'0 0.0
2018-May-16 16:00N 01°28' E 103°49'0 0.0
2018-May-16 15:31N 01°28' E 103°49'0 0.0
2018-May-16 14:59N 01°28' E 103°49'0 0.0
2018-May-16 14:30N 01°28' E 103°49'0 0.0
2018-May-16 14:00N 01°28' E 103°49'0 0.0
2018-May-16 13:30N 01°28' E 103°49'0 0.0
2018-May-16 13:00N 01°28' E 103°49'0 0.0
2018-May-16 12:30N 01°28' E 103°49'0 0.0
2018-May-16 11:59N 01°28' E 103°49'0 0.0
2018-May-16 11:31N 01°28' E 103°49'0 0.0
2018-May-16 10:59N 01°28' E 103°49'0 0.0
2018-May-16 10:29N 01°28' E 103°49'0 0.0
2018-May-16 09:59N 01°28' E 103°49'0 0.0
2018-May-16 09:30N 01°28' E 103°49'0 0.0
2018-May-16 09:00N 01°28' E 103°49'0 0.0
2018-May-16 08:30N 01°28' E 103°49'0 0.0
2018-May-16 07:59N 01°28' E 103°49'0 0.0
2018-May-16 07:30N 01°28' E 103°49'0 0.0
2018-May-16 07:00N 01°28' E 103°49'0 0.0
2018-May-16 06:29N 01°28' E 103°49'0 0.0
2018-May-16 05:59N 01°28' E 103°49'0 0.0
2018-May-16 05:30N 01°28' E 103°49'0 0.0
2018-May-16 04:59N 01°28' E 103°49'0 0.0
2018-May-16 04:30N 01°28' E 103°49'0 0.0
2018-May-16 03:59N 01°28' E 103°49'0 0.0
2018-May-16 03:30N 01°28' E 103°49'0 0.0
2018-May-16 02:59N 01°28' E 103°49'0 0.0
2018-May-16 02:30N 01°28' E 103°49'0 0.0
2018-May-16 01:59N 01°28' E 103°49'0 0.0
2018-May-16 01:31N 01°28' E 103°49'0 0.0
2018-May-16 00:53N 01°28' E 103°49'0 0.0
2018-May-16 00:30N 01°28' E 103°49'0 0.0
2018-May-15 23:59N 01°28' E 103°49'0 0.0
2018-May-15 23:30N 01°28' E 103°49'0 0.0
2018-May-15 23:00N 01°28' E 103°49'0 0.0
2018-May-15 22:29N 01°28' E 103°49'0 0.0
2018-May-15 21:59N 01°28' E 103°49'0 0.0
2018-May-15 21:30N 01°28' E 103°49'0 0.0
2018-May-15 21:00N 01°28' E 103°49'0 0.0
2018-May-15 20:30N 01°28' E 103°49'0 0.0
2018-May-15 19:59N 01°28' E 103°49'0 0.0
2018-May-15 19:30N 01°28' E 103°49'0 0.0
2018-May-15 18:59N 01°28' E 103°49'0 0.0
2018-May-15 18:31N 01°28' E 103°49'0 0.0
2018-May-15 18:00N 01°28' E 103°49'0 0.0
2018-May-15 17:31N 01°28' E 103°49'0 0.0
2018-May-15 16:57N 01°28' E 103°49'0 0.0
2018-May-15 16:30N 01°28' E 103°49'0 0.0
2018-May-15 16:00N 01°28' E 103°49'0 0.0
2018-May-15 15:30N 01°28' E 103°49'0 0.0
2018-May-15 14:57N 01°28' E 103°49'0 0.0
2018-May-15 14:30N 01°28' E 103°49'0 0.0
2018-May-15 13:59N 01°28' E 103°49'0 0.0
2018-May-15 13:30N 01°28' E 103°49'0 0.0
2018-May-15 13:00N 01°28' E 103°49'0 0.0
2018-May-15 12:30N 01°28' E 103°49'0 0.0
2018-May-15 10:30N 01°28' E 103°49'0 0.0
2018-May-15 09:59N 01°28' E 103°49'0 0.0
2018-May-15 09:30N 01°28' E 103°49'0 0.0
2018-May-15 08:59N 01°28' E 103°49'0 0.0
2018-May-15 08:30N 01°28' E 103°49'0 0.0
2018-May-15 08:00N 01°28' E 103°49'0 0.0
2018-May-15 07:30N 01°28' E 103°49'0 0.0
2018-May-15 06:59N 01°28' E 103°49'0 0.0
2018-May-15 06:30N 01°28' E 103°49'0 0.0
2018-May-15 05:59N 01°28' E 103°49'0 0.0
2018-May-15 05:30N 01°28' E 103°49'0 0.0
2018-May-15 04:57N 01°28' E 103°49'0 0.0
2018-May-15 04:31N 01°28' E 103°49'0 0.0
2018-May-15 03:58N 01°28' E 103°49'0 0.0
2018-May-15 03:30N 01°28' E 103°49'0 0.0
2018-May-15 02:59N 01°28' E 103°49'0 0.0
2018-May-15 02:30N 01°28' E 103°49'0 0.0
2018-May-15 02:00N 01°28' E 103°49'0 0.0
2018-May-15 01:30N 01°28' E 103°49'0 0.0
2018-May-15 01:00N 01°28' E 103°49'0 0.0
2018-May-15 00:30N 01°28' E 103°49'0 0.0
2018-May-14 23:58N 01°28' E 103°49'0 0.0
2018-May-14 23:30N 01°28' E 103°49'0 0.0
2018-May-14 23:00N 01°28' E 103°49'0 0.0
2018-May-14 22:30N 01°28' E 103°49'0 0.0
2018-May-14 21:59N 01°28' E 103°49'0 0.0
2018-May-14 21:31N 01°28' E 103°49'0 0.0
2018-May-14 20:58N 01°28' E 103°49'0 0.0
2018-May-14 20:30N 01°28' E 103°49'0 0.0
2018-May-14 19:59N 01°28' E 103°49'0 0.0
2018-May-14 19:30N 01°28' E 103°49'0 0.0
2018-May-14 19:00N 01°28' E 103°49'0 0.0
2018-May-14 18:29N 01°28' E 103°49'0 0.0
2018-May-14 17:59N 01°28' E 103°49'0 0.0
2018-May-14 17:30N 01°28' E 103°49'0 0.0
2018-May-14 16:59N 01°28' E 103°49'0 0.0
2018-May-14 16:30N 01°28' E 103°49'0 0.0
2018-May-14 15:59N 01°28' E 103°49'0 0.0
2018-May-14 15:31N 01°28' E 103°49'0 0.0
2018-May-14 14:59N 01°28' E 103°49'0 0.0
2018-May-14 14:30N 01°28' E 103°49'0 0.0
2018-May-14 13:59N 01°28' E 103°49'0 0.0
2018-May-14 13:30N 01°28' E 103°49'0 0.0
2018-May-14 12:59N 01°28' E 103°49'0 0.0
2018-May-14 12:31N 01°28' E 103°49'0 0.0
2018-May-14 11:59N 01°28' E 103°49'0 0.0
2018-May-14 11:30N 01°28' E 103°49'0 0.0
2018-May-14 10:56N 01°28' E 103°49'0 0.0
2018-May-14 10:30N 01°28' E 103°49'0 0.0
2018-May-14 09:59N 01°28' E 103°49'0 0.0
2018-May-14 09:28N 01°28' E 103°49'0 0.0
2018-May-14 08:59N 01°28' E 103°49'0 0.0
2018-May-14 08:30N 01°28' E 103°49'0 0.0
2018-May-14 08:00N 01°28' E 103°49'0 0.0
2018-May-14 07:30N 01°28' E 103°49'0 0.0
2018-May-14 07:00N 01°28' E 103°49'0 0.0
2018-May-14 06:30N 01°28' E 103°49'0 0.0
2018-May-14 05:58N 01°28' E 103°49'0 0.0
2018-May-14 05:31N 01°28' E 103°49'0 0.0
2018-May-14 05:00N 01°28' E 103°49'0 0.0
2018-May-14 04:31N 01°28' E 103°49'0 0.0
2018-May-14 03:59N 01°28' E 103°49'0 0.0
2018-May-14 03:31N 01°28' E 103°49'0 0.0
2018-May-14 02:59N 01°28' E 103°49'0 0.0
2018-May-14 02:30N 01°28' E 103°49'0 0.0
2018-May-14 02:00N 01°28' E 103°49'0 0.0
2018-May-14 01:30N 01°28' E 103°49'0 0.0
2018-May-14 01:00N 01°28' E 103°49'0 0.0
2018-May-14 00:30N 01°28' E 103°49'0 0.0
2018-May-13 23:59N 01°28' E 103°49'0 0.0
2018-May-13 23:30N 01°28' E 103°49'0 0.0
2018-May-13 23:00N 01°28' E 103°49'0 0.0
2018-May-13 22:30N 01°28' E 103°49'0 0.0
2018-May-13 21:59N 01°28' E 103°49'0 0.0
2018-May-13 21:30N 01°28' E 103°49'0 0.0
2018-May-13 21:00N 01°28' E 103°49'0 0.0
2018-May-13 20:29N 01°28' E 103°49'0 0.0
2018-May-13 20:00N 01°28' E 103°49'0 0.0
2018-May-13 19:30N 01°28' E 103°49'0 0.0
2018-May-13 19:00N 01°28' E 103°49'0 0.0
2018-May-13 18:30N 01°28' E 103°49'0 0.0
2018-May-13 17:59N 01°28' E 103°49'0 0.0
2018-May-13 17:30N 01°28' E 103°49'0 0.0
2018-May-13 17:00N 01°28' E 103°49'0 0.0
2018-May-13 16:30N 01°28' E 103°49'0 0.0
2018-May-13 16:00N 01°28' E 103°49'0 0.0
2018-May-13 15:31N 01°28' E 103°49'0 0.0
2018-May-13 14:55N 01°28' E 103°49'0 0.0
2018-May-13 14:30N 01°28' E 103°49'0 0.0
2018-May-13 14:00N 01°28' E 103°49'0 0.0
2018-May-13 13:30N 01°28' E 103°49'0 0.0
2018-May-13 12:59N 01°28' E 103°49'0 0.0
2018-May-13 12:30N 01°28' E 103°49'0 0.0
2018-May-13 11:59N 01°28' E 103°49'0 0.0
2018-May-13 11:30N 01°28' E 103°49'0 0.0
2018-May-13 10:58N 01°28' E 103°49'0 0.0
2018-May-13 10:31N 01°28' E 103°49'0 0.0
2018-May-13 09:59N 01°28' E 103°49'0 0.0
2018-May-13 09:30N 01°28' E 103°49'0 0.0
2018-May-13 08:59N 01°28' E 103°49'0 0.0
2018-May-13 08:30N 01°28' E 103°49'0 0.0
2018-May-13 07:59N 01°28' E 103°49'0 0.0
2018-May-13 07:31N 01°28' E 103°49'0 0.0
2018-May-13 07:00N 01°28' E 103°49'0 0.0
2018-May-13 06:30N 01°28' E 103°49'0 0.0
2018-May-13 05:59N 01°28' E 103°49'0 0.0
2018-May-13 05:31N 01°28' E 103°49'0 0.0
2018-May-13 04:58N 01°28' E 103°49'0 0.0
2018-May-13 04:30N 01°28' E 103°49'0 0.0
2018-May-13 03:59N 01°28' E 103°49'0 0.0
2018-May-13 03:30N 01°28' E 103°49'0 0.0
2018-May-13 03:00N 01°28' E 103°49'0 0.0
2018-May-13 02:30N 01°28' E 103°49'0 0.0
2018-May-13 02:00N 01°28' E 103°49'0 0.0
2018-May-13 01:30N 01°28' E 103°49'0 0.0
2018-May-13 00:59N 01°28' E 103°49'0 0.0
2018-May-13 00:28N 01°28' E 103°49'0 0.0
2018-May-12 23:59N 01°28' E 103°49'0 0.0
2018-May-12 23:30N 01°28' E 103°49'0 0.0
2018-May-12 22:59N 01°28' E 103°49'0 0.0
2018-May-12 22:30N 01°28' E 103°49'0 0.0
2018-May-12 21:59N 01°28' E 103°49'0 0.0
2018-May-12 21:30N 01°28' E 103°49'0 0.0
2018-May-12 20:59N 01°28' E 103°49'0 0.0
2018-May-12 20:30N 01°28' E 103°49'0 0.0
2018-May-12 19:59N 01°28' E 103°49'0 0.0
2018-May-12 19:31N 01°28' E 103°49'0 0.0
2018-May-12 18:59N 01°28' E 103°49'0 0.0
2018-May-12 18:30N 01°28' E 103°49'0 0.0
2018-May-12 17:59N 01°28' E 103°49'0 0.0
2018-May-12 17:30N 01°28' E 103°49'0 0.0
2018-May-12 16:57N 01°28' E 103°49'0 0.0
2018-May-12 16:30N 01°28' E 103°49'0 0.0
2018-May-12 15:59N 01°28' E 103°49'0 0.0
2018-May-12 15:30N 01°28' E 103°49'0 0.0
2018-May-12 14:59N 01°28' E 103°49'0 0.0
2018-May-12 14:30N 01°28' E 103°49'0 0.0
2018-May-12 14:00N 01°28' E 103°49'0 0.0
2018-May-12 13:30N 01°28' E 103°49'0 0.0
2018-May-12 12:59N 01°28' E 103°49'0 0.0
2018-May-12 12:30N 01°28' E 103°49'0 0.0
2018-May-12 11:58N 01°28' E 103°49'0 0.0
2018-May-12 11:30N 01°28' E 103°49'0 0.0
2018-May-12 10:59N 01°28' E 103°49'0 0.0
2018-May-12 10:30N 01°28' E 103°49'0 0.0
2018-May-12 10:00N 01°28' E 103°49'0 0.0
2018-May-12 09:30N 01°28' E 103°49'0 0.0
2018-May-12 08:59N 01°28' E 103°49'0 0.0
2018-May-12 08:30N 01°28' E 103°49'0 0.0
2018-May-12 07:59N 01°28' E 103°49'0 0.0
2018-May-12 07:30N 01°28' E 103°49'0 0.0
2018-May-12 06:59N 01°28' E 103°49'0 0.0
2018-May-12 06:30N 01°28' E 103°49'0 0.0
2018-May-12 05:59N 01°28' E 103°49'0 0.0
2018-May-12 05:30N 01°28' E 103°49'  

Dump ship's entire track history